sensor_id;sensor_type;location;lat;lon;timestamp;P1;durP1;ratioP1;P2;durP2;ratioP2
67585;SDS011;55785;47.946;20.540;2023-07-31T00:00:40;1.73;;;1.30;;
67585;SDS011;55785;47.946;20.540;2023-07-31T00:03:05;1.92;;;1.50;;
67585;SDS011;55785;47.946;20.540;2023-07-31T00:05:30;2.38;;;1.45;;
67585;SDS011;55785;47.946;20.540;2023-07-31T00:07:55;2.70;;;1.45;;
67585;SDS011;55785;47.946;20.540;2023-07-31T00:10:21;3.55;;;1.40;;
67585;SDS011;55785;47.946;20.540;2023-07-31T00:12:46;4.03;;;1.50;;
67585;SDS011;55785;47.946;20.540;2023-07-31T00:15:11;1.77;;;1.20;;
67585;SDS011;55785;47.946;20.540;2023-07-31T00:17:37;1.83;;;1.40;;
67585;SDS011;55785;47.946;20.540;2023-07-31T00:20:03;2.50;;;1.50;;
67585;SDS011;55785;47.946;20.540;2023-07-31T00:22:28;2.25;;;1.55;;
67585;SDS011;55785;47.946;20.540;2023-07-31T00:24:53;4.38;;;1.30;;
67585;SDS011;55785;47.946;20.540;2023-07-31T00:27:18;4.00;;;1.83;;
67585;SDS011;55785;47.946;20.540;2023-07-31T00:29:44;1.98;;;1.58;;
67585;SDS011;55785;47.946;20.540;2023-07-31T00:32:09;3.38;;;1.73;;
67585;SDS011;55785;47.946;20.540;2023-07-31T00:34:34;1.90;;;1.30;;
67585;SDS011;55785;47.946;20.540;2023-07-31T00:36:59;1.90;;;1.23;;
67585;SDS011;55785;47.946;20.540;2023-07-31T00:39:24;2.92;;;1.50;;
67585;SDS011;55785;47.946;20.540;2023-07-31T00:41:50;1.58;;;1.33;;
67585;SDS011;55785;47.946;20.540;2023-07-31T00:44:15;2.30;;;1.30;;
67585;SDS011;55785;47.946;20.540;2023-07-31T00:46:40;1.55;;;1.17;;
67585;SDS011;55785;47.946;20.540;2023-07-31T00:49:05;1.35;;;1.20;;
67585;SDS011;55785;47.946;20.540;2023-07-31T00:51:31;1.60;;;1.35;;
67585;SDS011;55785;47.946;20.540;2023-07-31T00:53:56;2.83;;;1.50;;
67585;SDS011;55785;47.946;20.540;2023-07-31T00:56:22;2.75;;;1.25;;
67585;SDS011;55785;47.946;20.540;2023-07-31T00:58:48;3.00;;;1.40;;
67585;SDS011;55785;47.946;20.540;2023-07-31T01:01:13;2.38;;;1.50;;
67585;SDS011;55785;47.946;20.540;2023-07-31T01:03:38;3.08;;;1.60;;
67585;SDS011;55785;47.946;20.540;2023-07-31T01:11:16;3.45;;;1.42;;
67585;SDS011;55785;47.946;20.540;2023-07-31T01:13:39;5.00;;;1.80;;
67585;SDS011;55785;47.946;20.540;2023-07-31T01:16:05;4.43;;;1.40;;
67585;SDS011;55785;47.946;20.540;2023-07-31T01:18:30;3.10;;;1.30;;
67585;SDS011;55785;47.946;20.540;2023-07-31T01:20:57;2.63;;;1.30;;
67585;SDS011;55785;47.946;20.540;2023-07-31T01:26:28;1.80;;;1.13;;
67585;SDS011;55785;47.946;20.540;2023-07-31T01:31:25;2.47;;;1.15;;
67585;SDS011;55785;47.946;20.540;2023-07-31T01:33:52;2.47;;;1.20;;
67585;SDS011;55785;47.946;20.540;2023-07-31T01:36:18;2.47;;;1.13;;
67585;SDS011;55785;47.946;20.540;2023-07-31T01:38:43;1.42;;;1.10;;
67585;SDS011;55785;47.946;20.540;2023-07-31T01:41:08;2.47;;;1.10;;
67585;SDS011;55785;47.946;20.540;2023-07-31T01:43:33;1.60;;;1.25;;
67585;SDS011;55785;47.946;20.540;2023-07-31T01:45:59;1.65;;;1.25;;
67585;SDS011;55785;47.946;20.540;2023-07-31T01:48:24;2.17;;;1.40;;
67585;SDS011;55785;47.946;20.540;2023-07-31T01:50:49;1.58;;;1.13;;
67585;SDS011;55785;47.946;20.540;2023-07-31T01:53:14;2.17;;;1.17;;
67585;SDS011;55785;47.946;20.540;2023-07-31T01:55:40;2.28;;;1.20;;
67585;SDS011;55785;47.946;20.540;2023-07-31T01:58:05;2.97;;;1.00;;
67585;SDS011;55785;47.946;20.540;2023-07-31T02:00:30;1.20;;;1.10;;
67585;SDS011;55785;47.946;20.540;2023-07-31T02:02:55;4.00;;;1.23;;
67585;SDS011;55785;47.946;20.540;2023-07-31T02:05:20;3.05;;;1.38;;
67585;SDS011;55785;47.946;20.540;2023-07-31T02:07:46;2.65;;;1.13;;
67585;SDS011;55785;47.946;20.540;2023-07-31T02:10:11;2.47;;;1.20;;
67585;SDS011;55785;47.946;20.540;2023-07-31T02:12:36;1.40;;;1.10;;
67585;SDS011;55785;47.946;20.540;2023-07-31T02:15:01;1.48;;;1.08;;
67585;SDS011;55785;47.946;20.540;2023-07-31T02:17:26;2.10;;;1.02;;
67585;SDS011;55785;47.946;20.540;2023-07-31T02:19:52;2.40;;;1.08;;
67585;SDS011;55785;47.946;20.540;2023-07-31T02:22:17;1.58;;;1.20;;
67585;SDS011;55785;47.946;20.540;2023-07-31T02:24:43;1.67;;;1.30;;
67585;SDS011;55785;47.946;20.540;2023-07-31T02:27:08;1.73;;;1.20;;
67585;SDS011;55785;47.946;20.540;2023-07-31T02:29:33;5.07;;;1.20;;
67585;SDS011;55785;47.946;20.540;2023-07-31T02:31:58;1.67;;;1.10;;
67585;SDS011;55785;47.946;20.540;2023-07-31T02:34:23;1.95;;;1.20;;
67585;SDS011;55785;47.946;20.540;2023-07-31T02:36:49;1.33;;;1.05;;
67585;SDS011;55785;47.946;20.540;2023-07-31T02:39:14;1.40;;;1.20;;
67585;SDS011;55785;47.946;20.540;2023-07-31T02:41:39;3.05;;;1.10;;
67585;SDS011;55785;47.946;20.540;2023-07-31T02:44:04;1.30;;;1.10;;
67585;SDS011;55785;47.946;20.540;2023-07-31T02:46:29;1.30;;;1.10;;
67585;SDS011;55785;47.946;20.540;2023-07-31T02:48:55;1.33;;;1.13;;
67585;SDS011;55785;47.946;20.540;2023-07-31T02:51:20;1.58;;;1.00;;
67585;SDS011;55785;47.946;20.540;2023-07-31T02:53:45;2.42;;;1.15;;
67585;SDS011;55785;47.946;20.540;2023-07-31T02:56:10;1.90;;;1.30;;
67585;SDS011;55785;47.946;20.540;2023-07-31T02:58:35;3.53;;;1.15;;
67585;SDS011;55785;47.946;20.540;2023-07-31T03:01:01;1.40;;;1.00;;
67585;SDS011;55785;47.946;20.540;2023-07-31T03:03:26;1.25;;;1.00;;
67585;SDS011;55785;47.946;20.540;2023-07-31T03:05:51;2.92;;;1.10;;
67585;SDS011;55785;47.946;20.540;2023-07-31T03:08:16;4.82;;;1.30;;
67585;SDS011;55785;47.946;20.540;2023-07-31T03:10:41;1.35;;;1.00;;
67585;SDS011;55785;47.946;20.540;2023-07-31T03:13:07;1.60;;;1.02;;
67585;SDS011;55785;47.946;20.540;2023-07-31T03:15:32;1.08;;;0.90;;
67585;SDS011;55785;47.946;20.540;2023-07-31T03:17:57;1.27;;;0.93;;
67585;SDS011;55785;47.946;20.540;2023-07-31T03:20:22;1.38;;;1.00;;
67585;SDS011;55785;47.946;20.540;2023-07-31T03:22:48;5.28;;;1.10;;
67585;SDS011;55785;47.946;20.540;2023-07-31T03:25:13;2.55;;;1.05;;
67585;SDS011;55785;47.946;20.540;2023-07-31T03:27:38;1.50;;;0.90;;
67585;SDS011;55785;47.946;20.540;2023-07-31T03:30:03;2.22;;;1.00;;
67585;SDS011;55785;47.946;20.540;2023-07-31T03:32:29;1.58;;;1.10;;
67585;SDS011;55785;47.946;20.540;2023-07-31T03:34:54;2.08;;;0.98;;
67585;SDS011;55785;47.946;20.540;2023-07-31T03:37:19;1.98;;;1.10;;
67585;SDS011;55785;47.946;20.540;2023-07-31T03:39:44;1.75;;;1.10;;
67585;SDS011;55785;47.946;20.540;2023-07-31T03:42:09;2.53;;;1.13;;
67585;SDS011;55785;47.946;20.540;2023-07-31T03:44:35;1.58;;;0.98;;
67585;SDS011;55785;47.946;20.540;2023-07-31T03:47:00;1.20;;;0.90;;
67585;SDS011;55785;47.946;20.540;2023-07-31T03:49:25;1.27;;;0.90;;
67585;SDS011;55785;47.946;20.540;2023-07-31T03:51:50;2.25;;;1.08;;
67585;SDS011;55785;47.946;20.540;2023-07-31T03:54:16;4.28;;;0.98;;
67585;SDS011;55785;47.946;20.540;2023-07-31T03:56:41;2.80;;;1.10;;
67585;SDS011;55785;47.946;20.540;2023-07-31T03:59:06;1.10;;;0.90;;
67585;SDS011;55785;47.946;20.540;2023-07-31T04:01:31;1.73;;;0.95;;
67585;SDS011;55785;47.946;20.540;2023-07-31T04:03:56;2.50;;;1.10;;
67585;SDS011;55785;47.946;20.540;2023-07-31T04:06:22;1.40;;;1.00;;
67585;SDS011;55785;47.946;20.540;2023-07-31T04:08:47;1.38;;;1.10;;
67585;SDS011;55785;47.946;20.540;2023-07-31T04:11:12;1.33;;;1.05;;
67585;SDS011;55785;47.946;20.540;2023-07-31T04:13:37;1.20;;;1.05;;
67585;SDS011;55785;47.946;20.540;2023-07-31T04:16:03;1.88;;;1.00;;
67585;SDS011;55785;47.946;20.540;2023-07-31T04:18:29;1.40;;;1.00;;
67585;SDS011;55785;47.946;20.540;2023-07-31T04:20:55;1.58;;;1.10;;
67585;SDS011;55785;47.946;20.540;2023-07-31T04:23:20;1.55;;;1.05;;
67585;SDS011;55785;47.946;20.540;2023-07-31T04:25:45;1.70;;;1.00;;
67585;SDS011;55785;47.946;20.540;2023-07-31T04:28:10;1.30;;;0.90;;
67585;SDS011;55785;47.946;20.540;2023-07-31T04:30:35;7.03;;;2.03;;
67585;SDS011;55785;47.946;20.540;2023-07-31T04:33:01;1.67;;;1.00;;
67585;SDS011;55785;47.946;20.540;2023-07-31T04:35:26;1.80;;;1.20;;
67585;SDS011;55785;47.946;20.540;2023-07-31T04:37:51;1.10;;;0.90;;
67585;SDS011;55785;47.946;20.540;2023-07-31T04:40:16;1.90;;;0.98;;
67585;SDS011;55785;47.946;20.540;2023-07-31T04:42:41;1.20;;;1.00;;
67585;SDS011;55785;47.946;20.540;2023-07-31T04:45:08;2.60;;;1.02;;
67585;SDS011;55785;47.946;20.540;2023-07-31T04:47:33;1.65;;;1.15;;
67585;SDS011;55785;47.946;20.540;2023-07-31T04:49:58;2.15;;;1.10;;
67585;SDS011;55785;47.946;20.540;2023-07-31T04:52:23;2.78;;;1.05;;
67585;SDS011;55785;47.946;20.540;2023-07-31T04:54:49;3.28;;;1.20;;
67585;SDS011;55785;47.946;20.540;2023-07-31T04:57:14;1.58;;;1.10;;
67585;SDS011;55785;47.946;20.540;2023-07-31T04:59:39;1.80;;;1.02;;
67585;SDS011;55785;47.946;20.540;2023-07-31T05:02:04;1.20;;;1.00;;
67585;SDS011;55785;47.946;20.540;2023-07-31T05:04:30;1.77;;;1.17;;
67585;SDS011;55785;47.946;20.540;2023-07-31T05:06:55;1.77;;;1.08;;
67585;SDS011;55785;47.946;20.540;2023-07-31T05:09:20;1.88;;;1.08;;
67585;SDS011;55785;47.946;20.540;2023-07-31T05:11:45;2.72;;;1.00;;
67585;SDS011;55785;47.946;20.540;2023-07-31T05:14:10;2.58;;;1.25;;
67585;SDS011;55785;47.946;20.540;2023-07-31T05:16:36;1.20;;;0.90;;
67585;SDS011;55785;47.946;20.540;2023-07-31T05:19:01;1.73;;;1.10;;
67585;SDS011;55785;47.946;20.540;2023-07-31T05:21:26;1.30;;;1.10;;
67585;SDS011;55785;47.946;20.540;2023-07-31T05:23:51;1.60;;;1.00;;
67585;SDS011;55785;47.946;20.540;2023-07-31T05:26:16;2.75;;;0.90;;
67585;SDS011;55785;47.946;20.540;2023-07-31T05:28:42;1.38;;;1.02;;
67585;SDS011;55785;47.946;20.540;2023-07-31T05:31:07;2.25;;;1.17;;
67585;SDS011;55785;47.946;20.540;2023-07-31T05:33:32;3.47;;;1.02;;
67585;SDS011;55785;47.946;20.540;2023-07-31T05:35:57;1.55;;;1.10;;
67585;SDS011;55785;47.946;20.540;2023-07-31T05:38:22;2.30;;;0.93;;
67585;SDS011;55785;47.946;20.540;2023-07-31T05:40:48;1.40;;;0.90;;
67585;SDS011;55785;47.946;20.540;2023-07-31T05:43:13;1.50;;;0.95;;
67585;SDS011;55785;47.946;20.540;2023-07-31T05:45:38;2.38;;;1.10;;
67585;SDS011;55785;47.946;20.540;2023-07-31T05:48:04;1.25;;;1.00;;
67585;SDS011;55785;47.946;20.540;2023-07-31T05:50:29;2.47;;;1.05;;
67585;SDS011;55785;47.946;20.540;2023-07-31T05:52:55;2.33;;;0.90;;
67585;SDS011;55785;47.946;20.540;2023-07-31T05:55:20;2.53;;;0.82;;
67585;SDS011;55785;47.946;20.540;2023-07-31T05:57:45;1.60;;;1.08;;
67585;SDS011;55785;47.946;20.540;2023-07-31T06:00:10;1.00;;;0.90;;
67585;SDS011;55785;47.946;20.540;2023-07-31T06:02:36;1.30;;;1.00;;
67585;SDS011;55785;47.946;20.540;2023-07-31T06:05:01;1.17;;;0.90;;
67585;SDS011;55785;47.946;20.540;2023-07-31T06:07:26;1.60;;;0.88;;
67585;SDS011;55785;47.946;20.540;2023-07-31T06:09:51;1.20;;;1.00;;
67585;SDS011;55785;47.946;20.540;2023-07-31T06:12:17;1.52;;;1.02;;
67585;SDS011;55785;47.946;20.540;2023-07-31T06:14:42;1.58;;;1.00;;
67585;SDS011;55785;47.946;20.540;2023-07-31T06:17:07;1.55;;;1.10;;
67585;SDS011;55785;47.946;20.540;2023-07-31T06:19:32;2.42;;;1.05;;
67585;SDS011;55785;47.946;20.540;2023-07-31T06:21:57;1.63;;;1.00;;
67585;SDS011;55785;47.946;20.540;2023-07-31T06:24:23;0.82;;;0.80;;
67585;SDS011;55785;47.946;20.540;2023-07-31T06:26:48;2.08;;;0.90;;
67585;SDS011;55785;47.946;20.540;2023-07-31T06:29:13;1.80;;;1.00;;
67585;SDS011;55785;47.946;20.540;2023-07-31T06:31:38;0.98;;;0.90;;
67585;SDS011;55785;47.946;20.540;2023-07-31T06:34:03;1.35;;;1.08;;
67585;SDS011;55785;47.946;20.540;2023-07-31T06:36:29;1.50;;;0.98;;
67585;SDS011;55785;47.946;20.540;2023-07-31T06:38:54;0.95;;;0.82;;
67585;SDS011;55785;47.946;20.540;2023-07-31T06:41:19;2.25;;;1.08;;
67585;SDS011;55785;47.946;20.540;2023-07-31T06:43:44;1.40;;;1.02;;
67585;SDS011;55785;47.946;20.540;2023-07-31T06:46:09;1.85;;;1.02;;
67585;SDS011;55785;47.946;20.540;2023-07-31T06:48:35;2.45;;;1.70;;
67585;SDS011;55785;47.946;20.540;2023-07-31T06:51:00;3.33;;;1.50;;
67585;SDS011;55785;47.946;20.540;2023-07-31T06:53:26;2.30;;;1.45;;
67585;SDS011;55785;47.946;20.540;2023-07-31T06:55:51;1.77;;;1.40;;
67585;SDS011;55785;47.946;20.540;2023-07-31T06:58:16;2.20;;;1.63;;
67585;SDS011;55785;47.946;20.540;2023-07-31T07:00:41;3.22;;;1.83;;
67585;SDS011;55785;47.946;20.540;2023-07-31T07:03:07;4.00;;;2.17;;
67585;SDS011;55785;47.946;20.540;2023-07-31T07:05:32;3.70;;;2.78;;
67585;SDS011;55785;47.946;20.540;2023-07-31T07:07:57;4.10;;;3.10;;
67585;SDS011;55785;47.946;20.540;2023-07-31T07:10:22;4.80;;;2.95;;
67585;SDS011;55785;47.946;20.540;2023-07-31T07:12:47;3.60;;;2.60;;
67585;SDS011;55785;47.946;20.540;2023-07-31T07:15:13;8.55;;;2.80;;
67585;SDS011;55785;47.946;20.540;2023-07-31T07:17:38;4.32;;;2.70;;
67585;SDS011;55785;47.946;20.540;2023-07-31T07:20:03;4.70;;;2.83;;
67585;SDS011;55785;47.946;20.540;2023-07-31T07:22:29;3.63;;;2.55;;
67585;SDS011;55785;47.946;20.540;2023-07-31T07:24:54;3.58;;;2.72;;
67585;SDS011;55785;47.946;20.540;2023-07-31T07:27:19;4.00;;;2.78;;
67585;SDS011;55785;47.946;20.540;2023-07-31T07:29:45;3.83;;;2.85;;
67585;SDS011;55785;47.946;20.540;2023-07-31T07:32:10;6.10;;;2.53;;
67585;SDS011;55785;47.946;20.540;2023-07-31T07:34:36;4.25;;;2.80;;
67585;SDS011;55785;47.946;20.540;2023-07-31T07:37:01;3.03;;;2.30;;
67585;SDS011;55785;47.946;20.540;2023-07-31T07:39:26;4.10;;;2.08;;
67585;SDS011;55785;47.946;20.540;2023-07-31T07:41:51;2.67;;;1.90;;
67585;SDS011;55785;47.946;20.540;2023-07-31T07:44:16;3.15;;;1.98;;
67585;SDS011;55785;47.946;20.540;2023-07-31T07:46:42;2.88;;;2.00;;
67585;SDS011;55785;47.946;20.540;2023-07-31T07:49:07;3.35;;;2.13;;
67585;SDS011;55785;47.946;20.540;2023-07-31T07:51:32;3.20;;;1.80;;
67585;SDS011;55785;47.946;20.540;2023-07-31T07:53:58;2.38;;;1.92;;
67585;SDS011;55785;47.946;20.540;2023-07-31T07:56:23;2.92;;;1.73;;
67585;SDS011;55785;47.946;20.540;2023-07-31T07:58:49;2.40;;;1.90;;
67585;SDS011;55785;47.946;20.540;2023-07-31T08:01:14;4.07;;;2.30;;
67585;SDS011;55785;47.946;20.540;2023-07-31T08:03:40;2.28;;;1.90;;
67585;SDS011;55785;47.946;20.540;2023-07-31T08:06:05;2.58;;;1.95;;
67585;SDS011;55785;47.946;20.540;2023-07-31T08:08:30;2.85;;;2.10;;
67585;SDS011;55785;47.946;20.540;2023-07-31T08:10:55;3.00;;;1.98;;
67585;SDS011;55785;47.946;20.540;2023-07-31T08:13:20;2.63;;;1.85;;
67585;SDS011;55785;47.946;20.540;2023-07-31T08:15:46;2.50;;;1.60;;
67585;SDS011;55785;47.946;20.540;2023-07-31T08:18:11;2.42;;;1.73;;
67585;SDS011;55785;47.946;20.540;2023-07-31T08:20:36;2.10;;;1.60;;
67585;SDS011;55785;47.946;20.540;2023-07-31T08:23:02;2.88;;;1.67;;
67585;SDS011;55785;47.946;20.540;2023-07-31T08:25:27;5.93;;;1.70;;
67585;SDS011;55785;47.946;20.540;2023-07-31T08:27:52;2.72;;;1.60;;
67585;SDS011;55785;47.946;20.540;2023-07-31T08:30:17;2.45;;;1.60;;
67585;SDS011;55785;47.946;20.540;2023-07-31T08:32:42;2.97;;;1.70;;
67585;SDS011;55785;47.946;20.540;2023-07-31T08:35:08;5.40;;;1.73;;
67585;SDS011;55785;47.946;20.540;2023-07-31T08:37:33;2.10;;;1.60;;
67585;SDS011;55785;47.946;20.540;2023-07-31T08:39:58;1.63;;;1.20;;
67585;SDS011;55785;47.946;20.540;2023-07-31T08:42:23;1.85;;;1.55;;
67585;SDS011;55785;47.946;20.540;2023-07-31T08:44:48;5.50;;;2.00;;
67585;SDS011;55785;47.946;20.540;2023-07-31T08:47:14;2.58;;;1.67;;
67585;SDS011;55785;47.946;20.540;2023-07-31T08:49:40;2.13;;;1.60;;
67585;SDS011;55785;47.946;20.540;2023-07-31T08:52:07;1.98;;;1.40;;
67585;SDS011;55785;47.946;20.540;2023-07-31T08:54:32;1.75;;;1.30;;
67585;SDS011;55785;47.946;20.540;2023-07-31T08:56:57;3.38;;;1.85;;
67585;SDS011;55785;47.946;20.540;2023-07-31T08:59:22;2.30;;;1.58;;
67585;SDS011;55785;47.946;20.540;2023-07-31T09:01:49;2.78;;;1.80;;
67585;SDS011;55785;47.946;20.540;2023-07-31T09:04:14;2.03;;;1.40;;
67585;SDS011;55785;47.946;20.540;2023-07-31T09:06:41;3.00;;;1.70;;
67585;SDS011;55785;47.946;20.540;2023-07-31T09:09:07;2.00;;;1.30;;
67585;SDS011;55785;47.946;20.540;2023-07-31T09:11:32;1.95;;;1.50;;
67585;SDS011;55785;47.946;20.540;2023-07-31T09:13:57;2.92;;;1.30;;
67585;SDS011;55785;47.946;20.540;2023-07-31T09:16:31;2.00;;;1.50;;
67585;SDS011;55785;47.946;20.540;2023-07-31T09:18:57;6.72;;;1.67;;
67585;SDS011;55785;47.946;20.540;2023-07-31T09:21:23;2.05;;;1.40;;
67585;SDS011;55785;47.946;20.540;2023-07-31T09:23:49;3.00;;;1.40;;
67585;SDS011;55785;47.946;20.540;2023-07-31T09:26:34;2.63;;;1.45;;
67585;SDS011;55785;47.946;20.540;2023-07-31T09:29:01;1.80;;;1.42;;
67585;SDS011;55785;47.946;20.540;2023-07-31T09:31:33;1.70;;;1.20;;
67585;SDS011;55785;47.946;20.540;2023-07-31T09:34:03;4.80;;;1.33;;
67585;SDS011;55785;47.946;20.540;2023-07-31T09:36:31;2.05;;;1.40;;
67585;SDS011;55785;47.946;20.540;2023-07-31T09:39:01;1.63;;;1.40;;
67585;SDS011;55785;47.946;20.540;2023-07-31T09:41:27;3.08;;;1.27;;
67585;SDS011;55785;47.946;20.540;2023-07-31T09:43:53;1.17;;;1.00;;
67585;SDS011;55785;47.946;20.540;2023-07-31T09:46:21;1.20;;;1.10;;
67585;SDS011;55785;47.946;20.540;2023-07-31T09:48:46;3.05;;;1.38;;
67585;SDS011;55785;47.946;20.540;2023-07-31T09:51:11;1.73;;;1.20;;
67585;SDS011;55785;47.946;20.540;2023-07-31T09:53:37;2.28;;;1.40;;
67585;SDS011;55785;47.946;20.540;2023-07-31T09:56:02;2.90;;;1.10;;
67585;SDS011;55785;47.946;20.540;2023-07-31T09:58:29;1.27;;;1.17;;
67585;SDS011;55785;47.946;20.540;2023-07-31T10:00:54;1.20;;;1.00;;
67585;SDS011;55785;47.946;20.540;2023-07-31T10:03:22;1.70;;;1.17;;
67585;SDS011;55785;47.946;20.540;2023-07-31T10:05:49;1.63;;;1.25;;
67585;SDS011;55785;47.946;20.540;2023-07-31T10:08:16;2.55;;;1.20;;
67585;SDS011;55785;47.946;20.540;2023-07-31T10:10:44;1.30;;;1.00;;
67585;SDS011;55785;47.946;20.540;2023-07-31T10:13:10;1.63;;;1.20;;
67585;SDS011;55785;47.946;20.540;2023-07-31T10:15:36;1.60;;;1.10;;
67585;SDS011;55785;47.946;20.540;2023-07-31T10:18:02;1.35;;;1.10;;
67585;SDS011;55785;47.946;20.540;2023-07-31T10:20:31;1.40;;;1.20;;
67585;SDS011;55785;47.946;20.540;2023-07-31T10:22:57;1.83;;;1.20;;
67585;SDS011;55785;47.946;20.540;2023-07-31T10:25:22;1.10;;;1.00;;
67585;SDS011;55785;47.946;20.540;2023-07-31T10:27:49;2.30;;;1.15;;
67585;SDS011;55785;47.946;20.540;2023-07-31T10:30:16;2.00;;;1.52;;
67585;SDS011;55785;47.946;20.540;2023-07-31T10:32:43;2.45;;;1.10;;
67585;SDS011;55785;47.946;20.540;2023-07-31T10:35:10;2.03;;;1.20;;
67585;SDS011;55785;47.946;20.540;2023-07-31T10:37:37;2.95;;;1.23;;
67585;SDS011;55785;47.946;20.540;2023-07-31T10:42:54;2.70;;;1.30;;
67585;SDS011;55785;47.946;20.540;2023-07-31T10:45:24;1.90;;;1.38;;
67585;SDS011;55785;47.946;20.540;2023-07-31T10:48:14;1.70;;;1.10;;
67585;SDS011;55785;47.946;20.540;2023-07-31T10:50:51;1.98;;;1.08;;
67585;SDS011;55785;47.946;20.540;2023-07-31T10:53:26;1.70;;;1.10;;
67585;SDS011;55785;47.946;20.540;2023-07-31T10:55:57;2.33;;;1.25;;
67585;SDS011;55785;47.946;20.540;2023-07-31T10:58:23;1.58;;;1.20;;
67585;SDS011;55785;47.946;20.540;2023-07-31T11:00:49;1.40;;;1.15;;
67585;SDS011;55785;47.946;20.540;2023-07-31T11:03:18;1.48;;;1.10;;
67585;SDS011;55785;47.946;20.540;2023-07-31T11:10:46;1.40;;;1.10;;
67585;SDS011;55785;47.946;20.540;2023-07-31T11:13:13;1.40;;;1.20;;
67585;SDS011;55785;47.946;20.540;2023-07-31T11:15:39;1.10;;;1.00;;
67585;SDS011;55785;47.946;20.540;2023-07-31T11:18:04;2.03;;;1.27;;
67585;SDS011;55785;47.946;20.540;2023-07-31T11:20:30;1.73;;;1.10;;
67585;SDS011;55785;47.946;20.540;2023-07-31T11:23:02;1.42;;;1.10;;
67585;SDS011;55785;47.946;20.540;2023-07-31T11:25:30;1.30;;;1.20;;
67585;SDS011;55785;47.946;20.540;2023-07-31T11:27:56;2.53;;;1.13;;
67585;SDS011;55785;47.946;20.540;2023-07-31T11:30:23;1.75;;;1.13;;
67585;SDS011;55785;47.946;20.540;2023-07-31T11:32:48;1.30;;;1.17;;
67585;SDS011;55785;47.946;20.540;2023-07-31T11:35:14;2.00;;;1.00;;
67585;SDS011;55785;47.946;20.540;2023-07-31T11:37:40;3.85;;;1.27;;
67585;SDS011;55785;47.946;20.540;2023-07-31T11:40:09;1.77;;;1.25;;
67585;SDS011;55785;47.946;20.540;2023-07-31T11:42:35;1.10;;;1.00;;
67585;SDS011;55785;47.946;20.540;2023-07-31T11:45:04;2.33;;;1.10;;
67585;SDS011;55785;47.946;20.540;2023-07-31T11:47:33;1.83;;;1.25;;
67585;SDS011;55785;47.946;20.540;2023-07-31T11:49:59;2.40;;;1.10;;
67585;SDS011;55785;47.946;20.540;2023-07-31T11:52:25;1.30;;;1.00;;
67585;SDS011;55785;47.946;20.540;2023-07-31T11:54:51;1.42;;;1.00;;
67585;SDS011;55785;47.946;20.540;2023-07-31T11:57:16;1.98;;;1.30;;
67585;SDS011;55785;47.946;20.540;2023-07-31T11:59:43;1.90;;;1.10;;
67585;SDS011;55785;47.946;20.540;2023-07-31T12:02:09;1.33;;;1.13;;
67585;SDS011;55785;47.946;20.540;2023-07-31T12:04:35;1.85;;;0.93;;
67585;SDS011;55785;47.946;20.540;2023-07-31T12:07:00;1.58;;;1.00;;
67585;SDS011;55785;47.946;20.540;2023-07-31T12:09:26;1.58;;;1.08;;
67585;SDS011;55785;47.946;20.540;2023-07-31T12:11:51;3.47;;;1.15;;
67585;SDS011;55785;47.946;20.540;2023-07-31T12:14:20;2.00;;;1.13;;
67585;SDS011;55785;47.946;20.540;2023-07-31T12:16:46;3.33;;;1.20;;
67585;SDS011;55785;47.946;20.540;2023-07-31T12:19:11;1.83;;;1.20;;
67585;SDS011;55785;47.946;20.540;2023-07-31T12:21:37;2.13;;;0.90;;
67585;SDS011;55785;47.946;20.540;2023-07-31T12:24:03;1.40;;;1.05;;
67585;SDS011;55785;47.946;20.540;2023-07-31T12:26:33;1.58;;;0.90;;
67585;SDS011;55785;47.946;20.540;2023-07-31T12:28:59;2.33;;;1.02;;
67585;SDS011;55785;47.946;20.540;2023-07-31T12:31:25;1.38;;;1.20;;
67585;SDS011;55785;47.946;20.540;2023-07-31T12:33:53;1.30;;;1.10;;
67585;SDS011;55785;47.946;20.540;2023-07-31T12:36:21;2.40;;;1.00;;
67585;SDS011;55785;47.946;20.540;2023-07-31T12:38:47;1.10;;;1.00;;
67585;SDS011;55785;47.946;20.540;2023-07-31T12:41:13;4.43;;;1.30;;
67585;SDS011;55785;47.946;20.540;2023-07-31T12:43:39;1.33;;;1.00;;
67585;SDS011;55785;47.946;20.540;2023-07-31T12:46:06;2.17;;;1.13;;
67585;SDS011;55785;47.946;20.540;2023-07-31T12:48:32;1.13;;;1.00;;
67585;SDS011;55785;47.946;20.540;2023-07-31T12:50:57;1.55;;;0.95;;
67585;SDS011;55785;47.946;20.540;2023-07-31T12:53:23;1.95;;;1.00;;
67585;SDS011;55785;47.946;20.540;2023-07-31T12:55:48;1.83;;;1.10;;
67585;SDS011;55785;47.946;20.540;2023-07-31T12:58:14;2.75;;;1.15;;
67585;SDS011;55785;47.946;20.540;2023-07-31T13:00:39;1.02;;;0.90;;
67585;SDS011;55785;47.946;20.540;2023-07-31T13:03:04;2.03;;;0.90;;
67585;SDS011;55785;47.946;20.540;2023-07-31T13:05:30;0.95;;;0.82;;
67585;SDS011;55785;47.946;20.540;2023-07-31T13:07:55;1.75;;;1.10;;
67585;SDS011;55785;47.946;20.540;2023-07-31T13:10:22;1.60;;;1.02;;
67585;SDS011;55785;47.946;20.540;2023-07-31T13:12:47;1.02;;;0.95;;
67585;SDS011;55785;47.946;20.540;2023-07-31T13:15:13;2.97;;;1.00;;
67585;SDS011;55785;47.946;20.540;2023-07-31T13:17:38;1.42;;;1.13;;
67585;SDS011;55785;47.946;20.540;2023-07-31T13:20:04;1.60;;;1.00;;
67585;SDS011;55785;47.946;20.540;2023-07-31T13:22:30;1.33;;;0.90;;
67585;SDS011;55785;47.946;20.540;2023-07-31T13:24:55;1.15;;;0.82;;
67585;SDS011;55785;47.946;20.540;2023-07-31T13:27:21;2.45;;;0.93;;
67585;SDS011;55785;47.946;20.540;2023-07-31T13:29:49;1.08;;;0.90;;
67585;SDS011;55785;47.946;20.540;2023-07-31T13:32:16;1.20;;;0.90;;
67585;SDS011;55785;47.946;20.540;2023-07-31T13:34:42;1.27;;;0.90;;
67585;SDS011;55785;47.946;20.540;2023-07-31T13:37:07;1.13;;;0.90;;
67585;SDS011;55785;47.946;20.540;2023-07-31T13:39:33;1.10;;;1.00;;
67585;SDS011;55785;47.946;20.540;2023-07-31T13:41:58;0.93;;;0.82;;
67585;SDS011;55785;47.946;20.540;2023-07-31T13:44:24;1.50;;;0.93;;
67585;SDS011;55785;47.946;20.540;2023-07-31T13:46:49;2.50;;;0.90;;
67585;SDS011;55785;47.946;20.540;2023-07-31T13:49:14;2.85;;;1.00;;
67585;SDS011;55785;47.946;20.540;2023-07-31T13:51:40;1.02;;;0.80;;
67585;SDS011;55785;47.946;20.540;2023-07-31T13:54:05;1.23;;;0.93;;
67585;SDS011;55785;47.946;20.540;2023-07-31T13:56:30;0.82;;;0.80;;
67585;SDS011;55785;47.946;20.540;2023-07-31T13:58:56;1.52;;;0.80;;
67585;SDS011;55785;47.946;20.540;2023-07-31T14:01:21;1.05;;;0.80;;
67585;SDS011;55785;47.946;20.540;2023-07-31T14:03:46;1.88;;;0.90;;
67585;SDS011;55785;47.946;20.540;2023-07-31T14:06:12;1.33;;;1.00;;
67585;SDS011;55785;47.946;20.540;2023-07-31T14:08:37;2.00;;;0.90;;
67585;SDS011;55785;47.946;20.540;2023-07-31T14:11:02;3.45;;;0.88;;
67585;SDS011;55785;47.946;20.540;2023-07-31T14:13:28;2.05;;;0.88;;
67585;SDS011;55785;47.946;20.540;2023-07-31T14:15:53;2.17;;;0.80;;
67585;SDS011;55785;47.946;20.540;2023-07-31T14:18:18;1.30;;;0.70;;
67585;SDS011;55785;47.946;20.540;2023-07-31T14:20:44;1.52;;;0.90;;
67585;SDS011;55785;47.946;20.540;2023-07-31T14:23:09;1.58;;;0.90;;
67585;SDS011;55785;47.946;20.540;2023-07-31T14:25:34;0.90;;;0.70;;
67585;SDS011;55785;47.946;20.540;2023-07-31T14:28:00;2.65;;;0.93;;
67585;SDS011;55785;47.946;20.540;2023-07-31T14:30:25;0.93;;;0.77;;
67585;SDS011;55785;47.946;20.540;2023-07-31T14:32:50;1.10;;;0.80;;
67585;SDS011;55785;47.946;20.540;2023-07-31T14:35:16;1.02;;;0.93;;
67585;SDS011;55785;47.946;20.540;2023-07-31T14:37:42;1.67;;;0.80;;
67585;SDS011;55785;47.946;20.540;2023-07-31T14:40:09;1.33;;;0.98;;
67585;SDS011;55785;47.946;20.540;2023-07-31T14:42:36;2.08;;;0.80;;